Etusivu
METAR-TAF:

METAR-TAF

Lentoasemat :

Laramie, Wyoming, Yhdysvallat

Leveyspiiri: 41-18-43N, Pituuspiiri: 105-40-30W, korkeus merenpinnasta: 2218 m

Tämänhetkinen sää

Tämä raportti tehtiin 1 tunti ja 28 minuuttia sitten, kello 18.53 UTC
Tuuli 16 kn lounaasta
Lämpötila 7°C
Kosteus 10%
Ilmanpaine 1024 hPa
Näkyvyys: 16.1 km
selkeää

METAR: KLAR 211853Z AUTO 23016KT 10SM CLR 07/M22 A3024 RMK AO2 SLP260 T00671222

Aika: 13:21 (20:21 UTC)

Sääennuste

Tämä raportti tehtiin 3 tuntia ja 1 minuuttia sitten, kello 17.20 UTC
Ennuste voimassa 21. päivästä klo 18 UTC - 22. päivään klo 18 UTC
Tuuli 18 kn lounaasta puuskistuen 24 kn:hen
Näkyvyys: 10 km
selkeää
From 22. päivästä klo 0000 UTC
Tuuli 12 kn lounaasta
Näkyvyys: 10 km
selkeää

TAF: KLAR 211720Z 2118/2218 23018G24KT P6SM SKC FM220000 23012KT P6SM SKC

Säähavainnot ja -ennusteet yli 4000 lentoasemalta (METAR- ja TAF-raportit).

Käytössä olevat sääasemat on merkitty karttaan keltaisilla ja punaisilla pisteillä.

Aseta hiiri pisteen päälle nähdäksesi sääaseman nimen.

Klikkaa sitten nähdäksesi säähavainnot ja -ennusteet.

Kartan vaihtaminen: klikkaa mustalla rastilla varustettuja vihreitä pisteitä, niin voit zoomata sisään; viivalla varustettua vihreää pistettä, niin voit zoomata ulos tai vihreitä nuolia, niin pääset viereisille kartoille.


METAR-TAF: